KSRB  Upper Cumberland Regional Airport

Add Bookmark

Sparta, Tennessee, United States

Status Useage
Operational Public
Latitude Longitude
36° 3' 24" N 85° 31' 48" W
36.056739 -85.530108
Local (DST -5) UTC (GMT -6)
Jul 30, 2014 12:09 Jul 30, 2014 17:09
Sunrise-Sunset Local UTC
Begin Civil Twilight 05:18 10:18
Sunrise 05:47 10:47
Sunset 07:49 00:49
End Civil Twilight 08:18 01:18

Current Weather

METAR Observed VFR
KSRB 301655Z AUTO 36003KT 10SM FEW039 25/16 A3013 Wed, Jul 30, 2014 @ 16:55 UTC
(14 Minutes ago)
Visual Flight Rules

Decoded METAR

Wind Visibility Clouds Conditions
360° at 3 knots (3 mph) 10 statute miles
  • Few at 3,900' AGL
  • No significant weather
Temperatures Readings Precipitation
Current Temp 25°C (77°F)
Dewpoint 16°C (61°F)
Humidity 57%
Altimeter 30.13"Hg
Sea Level Pressure 1020mb
None Recorded

Additional weather within a 50nm radius of KSRB

Map ICAO Location
KCSV 22.5nm E (106°)
KRNC 26.3nm S (215°)
KMQY 48.1nm W (267°)

24 Hour Weather History

Loading
-

24 Hour Weather Graphs

Loading
-

CheckWX.com is intended as a tool to help pilots better visualize weather data. It is not intended as a substitute for an official weather briefing obtained from a Flight Service Station. CheckWX.com does not meet the FAA requirements for an official pre-flight weather briefing. Therefore, it's important that pilots still call and obtain an official FSS pre-flight weather briefing.